Portada
METAR-TAF:

METAR-TAF

Aeroports :

Vineyard Haven, Massachusetts, Estats Units d'Amèrica

latitud: 41-23-32N, longitud: 070-37-00W, altitud: 20 m

Observació

L'informe es va fer fa 19 minuts, a les 22:53 UTC
Vent 3 kt del Nord/Nord-Oest
Temperatura 2°C
Humitat 55%
Pressió 1029 hPa
Visibilitat: 16.1 km
Cel clar

METAR: KMVY 242253Z AUTO 33003KT 10SM CLR 02/M06 A3038 RMK AO2 SLP287 T00171061

Hora: 18:12 (23:12 UTC)


TAF: manca

Observacions i pronòstics meteorològics de més de 4000 aeroports (METAR i TAF).

Les estacions disponibles són els punts grocs i vermells al mapa.

Posi el ratolí al punt desitjat per veure el nom de l'estació.

Feu clic per veure les observacions i els pronòstics meteorològics.

Per canviar el mapa: feu clic els botons verds amb una creu de color negre per apropar; al botó verd amb un guió per allunyar la imatge; o en les fletxes verdes per a mapes adjacents.


METAR-TAF: